• Join FlightAware (Why Join?)
  • Login
  • US Flag 
10:40AM EST


 

Airport Tracker/Info


-or-


 

Live Flight TrackerFlight Track Log ✈ SKW5517 ✈ 01-May-2013 ✈ KDEN - KPSP

Flight Track Log - Related Links

Times and Time Zones

All times are in EDT time to prevent confusion due to time zone crossing. See the SKW5517 flight status page for this flight to view local times or setup timezone preferences in your user account.

Time Position Orientation Groundspeed Altitude Reporting Facility
EDT Latitude Longitude Course Direction KTS MPH feet Rate Location/Type
10:07PM 39.8333 -104.8000 237° Southwest 222 255 8,300  Level Denver TRACON
10:08PM 39.8122 -104.8603 246° West 237 273 9,200 1,620 Climbing Denver Center
10:09PM 39.6703 -105.2223 247° West  Level FlightAware Approximate
10:09PM 39.7858 -104.9556 250° West 278 320 11,200  Level Denver Center
10:10PM 39.6305 -105.3636 248° West  Level FlightAware Approximate
10:10PM 39.7569 -105.0547 249° West 293 337 13,300  Level Denver Center
10:11PM 39.5874 -105.5034 248° West  Level FlightAware Approximate
10:11PM 39.7150 -105.1683 244° Southwest 324 373 15,800  Level Denver Center
10:12PM 39.5405 -105.6357 237° Southwest  Level FlightAware Approximate
10:12PM 39.6769 -105.2758 245° Southwest 327 376 17,900  Level Denver Center
10:13PM 39.6386 -105.3825 245° Southwest 324 373 19,700 1,980 Climbing Denver Center
10:14PM 39.6000 -105.4881 245° Southwest 322 371 22,000 1,920 Climbing Denver Center
10:15PM 39.5581 -105.6028 245° Southwest 327 376 23,700 1,320 Climbing Denver Center
10:16PM 39.5322 -105.6881 249° West 332 382 24,800 1,020 Climbing Denver Center
10:17PM 39.4936 -105.8264 250° West 347 399 25,900 1,140 Climbing Denver Center
10:18PM 39.4606 -105.9517 251° West 363 418 27,200 1,140 Climbing Denver Center
10:19PM 39.4178 -106.0997 250° West 373 429 28,300 960 Climbing Denver Center
10:20PM 39.3853 -106.2161 250° West 383 441 29,200 780 Climbing Denver Center
10:21PM 39.3428 -106.3647 250° West 393 452 30,100 840 Climbing Denver Center
10:22PM 39.3003 -106.5156 250° West 400 460 31,200 1,080 Climbing Denver Center
10:23PM 39.2583 -106.6661 250° West 398 458 32,400 1,020 Climbing Denver Center
10:24PM 39.2022 -106.7839 238° Southwest 400 460 33,400 1,020 Climbing Denver Center
10:25PM 39.1217 -106.9103 231° Southwest 405 466 34,500 780 Climbing Denver Center
10:26PM 39.0533 -107.0189 231° Southwest 406 467 35,100 480 Climbing Denver Center
10:27PM 38.9850 -107.1272 231° Southwest 407 468 35,600 420 Climbing Denver Center
10:28PM 38.9019 -107.2572 231° Southwest 418 481 36,000 180 Climbing Denver Center
10:29PM 38.8297 -107.3703 231° Southwest 426 490 36,000  Level Denver Center
10:31PM 38.7433 -107.5050 231° Southwest 437 503 36,000  Level Denver Center
10:32PM 38.6667 -107.6231 230° Southwest 445 512 36,000  Level Denver Center
10:33PM 38.5931 -107.7392 231° Southwest 441 507 36,000  Level Denver Center
10:34PM 38.4931 -107.8936 230° Southwest 442 509 36,000  Level Denver Center
10:35PM 38.4058 -108.0272 230° Southwest 439 505 36,000  Level Denver Center
10:36PM 38.3319 -108.1417 231° Southwest 436 502 36,000  Level Denver Center
10:37PM 38.2597 -108.2514 230° Southwest 423 487 36,000  Level Denver Center
10:38PM 38.1772 -108.3792 231° Southwest 418 481 36,000  Level Denver Center
10:39PM 38.1075 -108.4847 230° Southwest 409 471 36,000  Level Denver Center
10:40PM 38.0414 -108.5822 229° Southwest 405 466 36,000  Level Denver Center
10:41PM 37.9586 -108.7058 230° Southwest 409 471 36,000  Level Denver Center
10:42PM 37.8753 -108.8306 230° Southwest 414 476 36,000  Level Denver Center
10:43PM 37.8044 -108.9397 231° Southwest 417 480 36,000  Level Denver Center
10:44PM 37.7447 -109.0572 237° Southwest 416 479 36,000  Level Denver Center
10:45PM 37.6750 -109.1947 237° Southwest 416 479 36,000  Level Denver Center
10:46PM 37.6139 -109.3122 237° Southwest 418 481 36,000  Level Denver Center
10:47PM 37.5339 -109.4703 237° Southwest 419 482 36,000  Level Denver Center
10:48PM 37.4722 -109.5883 237° Southwest 423 487 36,000  Level Denver Center
10:49PM 37.4000 -109.7283 237° Southwest 428 493 36,000  Level Denver Center
10:50PM 37.3381 -109.8500 237° Southwest 431 496 36,000  Level Denver Center
10:51PM 37.2856 -109.9500 237° Southwest 432 497 36,000  Level Denver Center
10:52PM 37.2014 -110.1108 237° Southwest 433 498 36,000  Level Denver Center
10:53PM 37.1386 -110.2292 236° Southwest 432 497 36,000  Level Denver Center
10:54PM 37.0733 -110.3547 237° Southwest 430 495 36,000  Level Denver Center
10:55PM 36.9947 -110.5028 236° Southwest 425 489 36,000  Level Denver Center
10:56PM 36.9300 -110.6247 236° Southwest 422 486 36,000  Level Denver Center
10:57PM 36.8656 -110.7442 236° Southwest 416 479 36,000  Level Denver Center
10:58PM 36.8022 -110.8639 237° Southwest 413 475 36,000  Level Denver Center
10:59PM 36.7375 -110.9847 236° Southwest 417 480 36,000  Level Denver Center
11:00PM 36.6725 -111.1056 236° Southwest 419 482 36,000  Level Denver Center
11:01PM 36.6089 -111.2244 236° Southwest 416 479 36,000  Level Denver Center
11:02PM 36.5453 -111.3422 236° Southwest 412 474 36,000  Level Denver Center
11:03PM 36.4786 -111.4633 236° Southwest 418 481 36,000  Level Denver Center
11:04PM 36.4142 -111.5822 236° Southwest 417 480 36,000  Level Denver Center
11:06PM 36.3353 -111.7244 235° Southwest 416 479 36,000  Level Denver Center
11:07PM 36.2700 -111.8447 236° Southwest 418 481 36,000  Level Denver Center
11:08PM 36.2044 -111.9625 235° Southwest 418 481 36,000  Level Denver Center
11:08PM 36.1842 -111.9969 234° Southwest 423 487 36,000  Level Los Angeles Center
11:09PM 36.1194 -112.1169 236° Southwest 422 486 36,000  Level Los Angeles Center
11:10PM 36.0531 -112.2350 235° Southwest 421 484 36,000  Level Los Angeles Center
11:11PM 35.9522 -112.4156 235° Southwest 419 482 36,000  Level Los Angeles Center
11:12PM 35.8942 -112.5181 235° Southwest 423 487 36,000  Level Los Angeles Center
11:13PM 35.8150 -112.6603 236° Southwest 424 488 36,000  Level Los Angeles Center
11:14PM 35.7472 -112.7800 235° Southwest 428 493 36,000  Level Los Angeles Center
11:15PM 35.6819 -112.8953 235° Southwest 427 491 36,000  Level Los Angeles Center
11:16PM 35.6067 -113.0283 235° Southwest 429 494 36,000  Level Los Angeles Center
11:18PM 35.5378 -113.1467 234° Southwest 425 489 36,000  Level Los Angeles Center
11:19PM 35.4653 -113.2758 235° Southwest 430 495 36,000  Level Los Angeles Center
11:20PM 35.3967 -113.3953 235° Southwest 434 499 36,000  Level Los Angeles Center
11:21PM 35.3286 -113.5128 235° Southwest 429 494 36,000  Level Los Angeles Center
11:22PM 35.2597 -113.6308 234° Southwest 428 493 36,000 -120 Level Los Angeles Center
11:23PM 35.1908 -113.7503 235° Southwest 432 497 35,800 -660 Descending Los Angeles Center
11:24PM 35.1089 -113.8975 236° Southwest 439 505 34,600 -1,080 Descending Los Angeles Center
11:25PM 35.0208 -114.0383 233° Southwest 434 499 33,400 -1,080 Descending Los Angeles Center
11:26PM 34.9506 -114.1597 235° Southwest 436 502 32,400 -1,020 Descending Los Angeles Center
11:27PM 34.8792 -114.2825 235° Southwest 440 506 31,400 -1,020 Descending Los Angeles Center
11:28PM 34.8058 -114.4072 234° Southwest 450 518 30,400 -720 Descending Los Angeles Center
11:29PM 34.7306 -114.5306 233° Southwest 453 521 30,000 -240 Descending Los Angeles Center
11:30PM 34.6439 -114.6581 230° Southwest 445 512 30,000  Level Los Angeles Center
11:31PM 34.5664 -114.7744 231° Southwest 444 511 30,000 -540 Level Los Angeles Center
11:32PM 34.4889 -114.8900 231° Southwest 442 509 29,000 -1,020 Descending Los Angeles Center
11:33PM 34.4111 -115.0067 231° Southwest 446 513 28,000 -1,320 Descending Los Angeles Center
11:34PM 34.3156 -115.1500 231° Southwest 455 524 26,300 -2,100 Descending Los Angeles Center
11:35PM 34.2369 -115.2678 231° Southwest 454 522 23,700 -1,620 Descending Los Angeles Center
11:36PM 34.1603 -115.3814 231° Southwest 441 507 23,000 -960 Descending Los Angeles Center
11:37PM 34.0867 -115.4889 230° Southwest 423 487 21,800 -2,160 Descending Los Angeles Center
11:38PM 34.0153 -115.5944 231° Southwest 408 470 18,600 -3,060 Descending Los Angeles Center
11:39PM 33.9456 -115.6950 230° Southwest 397 457 15,500 -3,000 Descending Los Angeles Center
11:40PM 33.9108 -115.8125 250° West 392 451 12,400 -2,340 Descending Los Angeles Center
11:41PM 33.8989 -115.9539 264° West 364 419 10,700 -1,800 Descending Los Angeles Center
11:42PM 33.8719 -116.0522 252° West 335 386 8,800 -1,620 Descending Los Angeles Center
11:43PM 33.8500 -116.1189 248° West 307 353 7,500 -1,380 Descending Los Angeles Center
11:44PM 33.8206 -116.2228 251° West 282 325 6,000 -1,500 Descending Los Angeles Center
11:46PM 33.7833 -116.3500 251° West 216 249 3,300 -1,500 Descending Southern California TRACON